createdAt,value
2017-12-23T00:00:33.674Z,7
2017-12-23T00:01:14.248Z,6.97
2017-12-23T00:01:54.851Z,7
2017-12-23T00:02:35.458Z,6.96
2017-12-23T00:03:16.044Z,6.99
2017-12-23T00:03:56.613Z,6.96
2017-12-23T00:04:37.196Z,6.95
2017-12-23T00:05:17.764Z,6.97
2017-12-23T00:05:58.363Z,6.99
2017-12-23T00:06:38.973Z,7
2017-12-23T00:07:19.590Z,6.92
2017-12-23T00:08:00.171Z,6.99
2017-12-23T00:08:40.758Z,7.05
2017-12-23T00:09:21.349Z,6.96
2017-12-23T00:10:01.945Z,7.06
2017-12-23T00:10:42.522Z,6.96
2017-12-23T00:11:23.104Z,7
2017-12-23T00:12:03.692Z,7.02
2017-12-23T00:12:44.260Z,7
2017-12-23T00:13:24.826Z,6.97
2017-12-23T00:14:05.441Z,6.97
2017-12-23T00:14:46.021Z,7.03
2017-12-23T00:15:26.581Z,6.92
2017-12-23T00:16:07.167Z,6.88
2017-12-23T00:16:47.730Z,6.89
2017-12-23T00:17:28.324Z,6.95
2017-12-23T00:18:08.882Z,6.92
2017-12-23T00:18:49.502Z,6.84
2017-12-23T00:19:30.041Z,6.88
2017-12-23T00:20:10.623Z,6.89
2017-12-23T00:20:51.197Z,6.82
2017-12-23T00:21:31.765Z,6.77
2017-12-23T00:22:12.400Z,6.79
2017-12-23T00:22:52.980Z,6.95
2017-12-23T00:23:33.601Z,6.78
2017-12-23T00:24:14.169Z,6.82
2017-12-23T00:24:54.750Z,6.75
2017-12-23T00:25:35.316Z,6.75
2017-12-23T00:26:15.894Z,6.81
2017-12-23T00:26:56.469Z,6.67
2017-12-23T00:27:37.036Z,6.79
2017-12-23T00:28:17.633Z,6.69
2017-12-23T00:28:58.213Z,6.79
2017-12-23T00:29:38.799Z,6.7
2017-12-23T00:30:19.355Z,6.74
2017-12-23T00:30:59.924Z,6.72
2017-12-23T00:31:40.500Z,6.7
2017-12-23T00:32:21.091Z,6.75
2017-12-23T00:33:01.651Z,6.78
2017-12-23T00:33:42.253Z,6.75
2017-12-23T00:34:22.819Z,6.7
2017-12-23T00:35:03.388Z,6.77
2017-12-23T00:35:43.987Z,6.69
2017-12-23T00:36:24.558Z,6.7
2017-12-23T00:37:05.129Z,6.7
2017-12-23T00:37:45.718Z,6.62
2017-12-23T00:38:26.306Z,6.7
2017-12-23T00:39:06.907Z,6.72
2017-12-23T00:39:47.471Z,6.69
2017-12-23T00:40:28.066Z,6.62
2017-12-23T00:41:08.619Z,6.7
2017-12-23T00:41:49.196Z,6.63
2017-12-23T00:42:29.814Z,6.66
2017-12-23T00:43:10.426Z,6.63
2017-12-23T00:43:51.023Z,6.69
2017-12-23T00:44:31.605Z,6.72
2017-12-23T00:45:12.181Z,6.67
2017-12-23T00:45:52.755Z,6.81
2017-12-23T00:46:33.338Z,6.64
2017-12-23T00:47:13.897Z,6.72
2017-12-23T00:47:54.465Z,6.74
2017-12-23T00:48:35.052Z,6.74
2017-12-23T00:49:15.628Z,6.77
2017-12-23T00:49:56.260Z,6.77
2017-12-23T00:50:36.777Z,6.74
2017-12-23T00:51:17.399Z,6.72
2017-12-23T00:51:57.979Z,6.72
2017-12-23T00:52:38.569Z,6.7
2017-12-23T00:53:19.144Z,6.77
2017-12-23T00:53:59.720Z,6.67
2017-12-23T00:54:40.290Z,6.74
2017-12-23T00:55:20.856Z,6.77
2017-12-23T00:56:01.423Z,6.74
2017-12-23T00:56:42.002Z,6.78
2017-12-23T00:57:22.579Z,6.75
2017-12-23T00:58:03.155Z,6.77
2017-12-23T00:58:43.730Z,6.75
2017-12-23T00:59:24.326Z,6.77
2017-12-23T01:00:04.917Z,6.82
2017-12-23T01:00:45.502Z,6.79
2017-12-23T01:01:26.116Z,6.79
2017-12-23T01:02:06.734Z,6.78
2017-12-23T01:02:47.317Z,6.82
2017-12-23T01:03:27.941Z,6.82
2017-12-23T01:04:08.521Z,6.78
2017-12-23T01:04:49.097Z,6.7
2017-12-23T01:05:29.672Z,6.78
2017-12-23T01:06:10.252Z,6.66
2017-12-23T01:06:50.837Z,6.69
2017-12-23T01:07:31.447Z,6.72
2017-12-23T01:08:12.032Z,6.66
2017-12-23T01:08:52.599Z,6.64
2017-12-23T01:09:33.161Z,6.75
2017-12-23T01:10:13.787Z,6.74
2017-12-23T01:10:54.358Z,6.75
2017-12-23T01:11:34.966Z,6.67
2017-12-23T01:12:15.553Z,6.72
2017-12-23T01:12:56.120Z,6.66
2017-12-23T01:13:36.694Z,6.57
2017-12-23T01:14:17.270Z,6.64
2017-12-23T01:14:57.840Z,6.62
2017-12-23T01:15:38.396Z,6.6
2017-12-23T01:16:18.973Z,6.64
2017-12-23T01:16:59.550Z,6.62
2017-12-23T01:17:40.130Z,6.57
2017-12-23T01:18:20.688Z,6.54
2017-12-23T01:19:01.261Z,6.56
2017-12-23T01:19:41.843Z,6.46
2017-12-23T01:20:22.454Z,6.54
2017-12-23T01:21:03.044Z,6.48
2017-12-23T01:21:43.629Z,6.48
2017-12-23T01:22:24.216Z,6.49
2017-12-23T01:23:04.804Z,6.46
2017-12-23T01:23:45.379Z,6.46
2017-12-23T01:24:25.952Z,6.46
2017-12-23T01:25:06.538Z,6.46
2017-12-23T01:25:47.115Z,6.44
2017-12-23T01:26:27.688Z,6.42
2017-12-23T01:27:08.264Z,6.48
2017-12-23T01:27:48.814Z,6.49
2017-12-23T01:28:29.384Z,6.44
2017-12-23T01:29:09.945Z,6.48
2017-12-23T01:29:50.555Z,6.56
2017-12-23T01:30:31.118Z,6.54
2017-12-23T01:31:11.684Z,6.52
2017-12-23T01:31:52.272Z,6.56
2017-12-23T01:32:32.913Z,6.57
2017-12-23T01:33:13.415Z,6.59
2017-12-23T01:33:54.005Z,6.64
2017-12-23T01:34:34.574Z,6.62
2017-12-23T01:35:15.157Z,6.6
2017-12-23T01:35:55.745Z,6.63
2017-12-23T01:36:36.308Z,6.63
2017-12-23T01:37:16.886Z,6.63
2017-12-23T01:37:57.447Z,6.6
2017-12-23T01:38:38.007Z,6.6
2017-12-23T01:39:18.602Z,6.69
2017-12-23T01:39:59.191Z,6.69
2017-12-23T01:40:39.773Z,6.67
2017-12-23T01:41:20.335Z,6.7
2017-12-23T01:42:00.915Z,6.69
2017-12-23T01:42:41.497Z,6.72
2017-12-23T01:43:22.111Z,6.57
2017-12-23T01:44:02.720Z,6.7
2017-12-23T01:44:43.307Z,6.57
2017-12-23T01:45:23.867Z,6.64
2017-12-23T01:46:04.433Z,6.74
2017-12-23T01:46:45.021Z,6.66
2017-12-23T01:47:25.590Z,6.59
2017-12-23T01:48:06.150Z,6.6
2017-12-23T01:48:46.718Z,6.74
2017-12-23T01:49:27.290Z,6.74
2017-12-23T01:50:07.873Z,6.7
2017-12-23T01:50:48.492Z,6.7
2017-12-23T01:51:29.061Z,6.63
2017-12-23T01:52:09.638Z,6.63
2017-12-23T01:52:50.222Z,6.59
2017-12-23T01:53:30.807Z,6.62
2017-12-23T01:54:11.396Z,6.62
2017-12-23T01:54:52.001Z,6.75
2017-12-23T01:55:32.567Z,6.64
2017-12-23T01:56:13.150Z,6.6
2017-12-23T01:56:53.744Z,6.64
2017-12-23T01:57:34.318Z,6.7
2017-12-23T01:58:14.902Z,6.72
2017-12-23T01:58:55.500Z,6.74
2017-12-23T01:59:36.076Z,6.69
2017-12-23T02:00:16.671Z,6.64
2017-12-23T02:00:57.244Z,6.75
2017-12-23T02:01:37.863Z,6.77
2017-12-23T02:02:18.448Z,6.67
2017-12-23T02:02:59.067Z,6.72
2017-12-23T02:03:39.619Z,6.75
2017-12-23T02:04:20.214Z,6.78
2017-12-23T02:05:00.826Z,6.79
2017-12-23T02:05:41.390Z,6.69
2017-12-23T02:06:21.953Z,6.67
2017-12-23T02:07:02.527Z,6.72
2017-12-23T02:07:43.091Z,6.7
2017-12-23T02:08:23.644Z,6.75
2017-12-23T02:09:04.206Z,6.74
2017-12-23T02:09:44.761Z,6.7
2017-12-23T02:10:25.331Z,6.81
2017-12-23T02:11:05.913Z,6.79
2017-12-23T02:11:46.476Z,6.79
2017-12-23T02:12:27.050Z,6.85
2017-12-23T02:13:07.611Z,6.88
2017-12-23T02:13:48.169Z,6.85
2017-12-23T02:14:28.792Z,6.88
2017-12-23T02:15:09.335Z,6.88
2017-12-23T02:15:49.897Z,6.93
2017-12-23T02:16:30.477Z,6.89
2017-12-23T02:17:11.068Z,6.84
2017-12-23T02:17:51.641Z,6.85
2017-12-23T02:18:32.228Z,6.87
2017-12-23T02:19:12.789Z,6.82
2017-12-23T02:19:53.358Z,6.88
2017-12-23T02:20:34.008Z,6.89
2017-12-23T02:21:14.577Z,6.84
2017-12-23T02:21:55.200Z,6.84
2017-12-23T02:22:35.775Z,6.85
2017-12-23T02:23:16.398Z,6.89
2017-12-23T02:23:56.996Z,6.88
2017-12-23T02:24:37.568Z,6.89
2017-12-23T02:25:18.159Z,6.88
2017-12-23T02:25:58.742Z,6.84
2017-12-23T02:26:39.356Z,6.87
2017-12-23T02:27:19.943Z,6.82
2017-12-23T02:28:00.505Z,6.89
2017-12-23T02:28:41.090Z,6.89
2017-12-23T02:29:21.663Z,6.89
2017-12-23T02:30:02.239Z,6.92
2017-12-23T02:30:42.803Z,6.87
2017-12-23T02:31:23.380Z,6.89
2017-12-23T02:32:03.952Z,6.89
2017-12-23T02:32:44.520Z,6.81
2017-12-23T02:33:25.087Z,6.92
2017-12-23T02:34:05.661Z,6.82
2017-12-23T02:34:46.224Z,6.79
2017-12-23T02:35:26.782Z,6.82
2017-12-23T02:36:07.365Z,6.82
2017-12-23T02:36:47.931Z,6.89
2017-12-23T02:37:28.493Z,6.89
2017-12-23T02:38:09.057Z,6.85
2017-12-23T02:38:49.637Z,6.82
2017-12-23T02:39:30.221Z,6.77
2017-12-23T02:40:10.784Z,6.67
2017-12-23T02:40:51.347Z,6.74
2017-12-23T02:41:31.927Z,6.7
2017-12-23T02:42:12.498Z,6.79
2017-12-23T02:42:53.114Z,6.77
2017-12-23T02:43:33.685Z,6.69
2017-12-23T02:44:14.251Z,6.69
2017-12-23T02:44:54.836Z,6.75
2017-12-23T02:45:35.405Z,6.7
2017-12-23T02:46:15.991Z,6.74
2017-12-23T02:46:56.566Z,6.72
2017-12-23T02:47:37.130Z,6.69
2017-12-23T02:48:17.704Z,6.72
2017-12-23T02:48:58.276Z,6.62
2017-12-23T02:49:38.849Z,6.63
2017-12-23T02:50:19.459Z,6.63
2017-12-23T02:51:00.026Z,6.57
2017-12-23T02:51:40.608Z,6.62
2017-12-23T02:52:21.201Z,6.57
2017-12-23T02:53:01.817Z,6.56
2017-12-23T02:53:42.391Z,6.63
2017-12-23T02:54:22.957Z,6.56
2017-12-23T02:55:03.553Z,6.63
2017-12-23T02:55:44.116Z,6.64
2017-12-23T02:56:24.720Z,6.59
2017-12-23T02:57:05.286Z,6.54
2017-12-23T02:57:45.878Z,6.62
2017-12-23T02:58:26.454Z,6.6
2017-12-23T02:59:07.041Z,6.64
2017-12-23T02:59:47.641Z,6.62
2017-12-23T03:00:28.216Z,6.62
2017-12-23T03:01:08.802Z,6.6
2017-12-23T03:01:49.360Z,6.67
2017-12-23T03:02:29.939Z,6.57
2017-12-23T03:03:10.511Z,6.6
2017-12-23T03:03:51.094Z,6.6
2017-12-23T03:04:31.678Z,6.59
2017-12-23T03:05:12.247Z,6.67
2017-12-23T03:05:52.836Z,6.57
2017-12-23T03:06:33.410Z,6.64
2017-12-23T03:07:13.989Z,6.64
2017-12-23T03:07:54.591Z,6.7
2017-12-23T03:08:35.183Z,6.7
2017-12-23T03:09:15.743Z,6.69
2017-12-23T03:09:56.329Z,6.74
2017-12-23T03:10:36.923Z,6.77
2017-12-23T03:11:17.507Z,6.7
2017-12-23T03:11:58.086Z,6.72
2017-12-23T03:12:38.653Z,6.7
2017-12-23T03:13:19.233Z,6.75
2017-12-23T03:13:59.836Z,6.82
2017-12-23T03:14:40.410Z,6.69
2017-12-23T03:15:20.992Z,6.78
2017-12-23T03:16:01.557Z,6.75
2017-12-23T03:16:42.158Z,6.69
2017-12-23T03:17:22.751Z,6.69
2017-12-23T03:18:03.353Z,6.75
2017-12-23T03:18:43.928Z,6.67
2017-12-23T03:19:24.512Z,6.77
2017-12-23T03:20:05.085Z,6.75
2017-12-23T03:20:45.656Z,6.77
2017-12-23T03:21:26.225Z,6.64
2017-12-23T03:22:06.804Z,6.7
2017-12-23T03:22:47.361Z,6.7
2017-12-23T03:23:27.956Z,6.74
2017-12-23T03:24:08.512Z,6.7
2017-12-23T03:24:49.071Z,6.78
2017-12-23T03:25:29.668Z,6.7
2017-12-23T03:26:10.267Z,6.7
2017-12-23T03:26:50.885Z,6.72
2017-12-23T03:27:31.475Z,6.64
2017-12-23T03:28:12.034Z,6.72
2017-12-23T03:28:52.603Z,6.66
2017-12-23T03:29:33.186Z,6.72
2017-12-23T03:30:13.767Z,6.74
2017-12-23T03:30:54.376Z,6.75
2017-12-23T03:31:34.942Z,6.72
2017-12-23T03:32:15.515Z,6.64
2017-12-23T03:32:56.111Z,6.77
2017-12-23T03:33:36.690Z,6.69
2017-12-23T03:34:17.281Z,6.84
2017-12-23T03:34:57.868Z,6.66
2017-12-23T03:35:38.457Z,6.75
2017-12-23T03:36:19.003Z,6.67
2017-12-23T03:36:59.585Z,6.7
2017-12-23T03:37:40.183Z,6.6
2017-12-23T03:38:20.788Z,6.6
2017-12-23T03:39:01.362Z,6.63
2017-12-23T03:39:41.981Z,6.52
2017-12-23T03:40:22.582Z,6.46
2017-12-23T03:41:03.189Z,6.46
2017-12-23T03:41:43.700Z,6.45
2017-12-23T03:42:24.278Z,6.45
2017-12-23T03:43:04.895Z,6.51
2017-12-23T03:43:45.501Z,6.52
2017-12-23T03:44:26.080Z,6.51
2017-12-23T03:45:06.684Z,6.48
2017-12-23T03:45:47.275Z,6.57
2017-12-23T03:46:27.845Z,6.59
2017-12-23T03:47:08.419Z,6.62
2017-12-23T03:47:49.041Z,6.59
2017-12-23T03:48:29.612Z,6.49
2017-12-23T03:49:10.194Z,6.42
2017-12-23T03:49:50.762Z,6.45
2017-12-23T03:50:31.401Z,6.44
2017-12-23T03:51:11.965Z,6.42
2017-12-23T03:51:52.550Z,6.36
2017-12-23T03:52:33.107Z,6.33
2017-12-23T03:53:13.663Z,6.36
2017-12-23T03:53:54.225Z,6.42
2017-12-23T03:54:34.809Z,6.44
2017-12-23T03:55:15.361Z,6.35
2017-12-23T03:55:55.948Z,6.31
2017-12-23T03:56:36.508Z,6.33
2017-12-23T03:57:17.079Z,6.27
2017-12-23T03:57:57.662Z,6.27
2017-12-23T03:58:38.212Z,6.28
2017-12-23T03:59:18.806Z,6.26
2017-12-23T03:59:59.386Z,6.24
2017-12-23T04:00:39.974Z,6.2
2017-12-23T04:01:20.542Z,6.26
2017-12-23T04:02:01.133Z,6.28
2017-12-23T04:02:41.719Z,6.35
2017-12-23T04:03:22.292Z,6.3
2017-12-23T04:04:02.865Z,6.33
2017-12-23T04:04:43.434Z,6.24
2017-12-23T04:05:24.006Z,6.17
2017-12-23T04:06:04.583Z,6.22
2017-12-23T04:06:45.146Z,6.26
2017-12-23T04:07:25.735Z,6.22
2017-12-23T04:08:06.310Z,6.14
2017-12-23T04:08:46.892Z,6.19
2017-12-23T04:09:27.438Z,6.19
2017-12-23T04:10:08.004Z,6.09
2017-12-23T04:10:48.585Z,6.28
2017-12-23T04:11:29.167Z,6.11
2017-12-23T04:12:09.734Z,6.24
2017-12-23T04:12:50.301Z,6.17
2017-12-23T04:13:30.869Z,6.08
2017-12-23T04:14:11.432Z,6.07
2017-12-23T04:14:52.006Z,6.11
2017-12-23T04:15:32.575Z,6.17
2017-12-23T04:16:13.203Z,6.16
2017-12-23T04:16:53.776Z,6.2
2017-12-23T04:17:34.358Z,6.17
2017-12-23T04:18:14.930Z,6.24
2017-12-23T04:18:55.501Z,6.11
2017-12-23T04:19:36.090Z,6.19
2017-12-23T04:20:16.666Z,6.11
2017-12-23T04:20:57.280Z,6.26
2017-12-23T04:21:37.843Z,6.17
2017-12-23T04:22:18.425Z,6.28
2017-12-23T04:22:59.005Z,6.09
2017-12-23T04:23:39.630Z,6.14
2017-12-23T04:24:20.209Z,6.17
2017-12-23T04:25:00.794Z,6.17
2017-12-23T04:25:41.361Z,6.28
2017-12-23T04:26:21.946Z,6.19
2017-12-23T04:27:02.530Z,6.2
2017-12-23T04:27:43.103Z,6.14
2017-12-23T04:28:23.661Z,6.19
2017-12-23T04:29:04.254Z,6.12
2017-12-23T04:29:44.841Z,6.22
2017-12-23T04:30:25.420Z,6.11
2017-12-23T04:31:06.005Z,6.17
2017-12-23T04:31:46.567Z,6.12
2017-12-23T04:32:27.146Z,6.17
2017-12-23T04:33:07.707Z,6.12
2017-12-23T04:33:48.305Z,6.14
2017-12-23T04:34:28.877Z,6.11
2017-12-23T04:35:09.461Z,6.19
2017-12-23T04:35:50.034Z,6.14
2017-12-23T04:36:30.620Z,6.16
2017-12-23T04:37:11.190Z,6.16
2017-12-23T04:37:51.752Z,6.12
2017-12-23T04:38:32.341Z,6.19
2017-12-23T04:39:12.907Z,6.11
2017-12-23T04:39:53.482Z,6.09
2017-12-23T04:40:34.047Z,6.14
2017-12-23T04:41:14.608Z,6.05
2017-12-23T04:41:55.200Z,6.04
2017-12-23T04:42:35.773Z,6.05
2017-12-23T04:43:16.342Z,6.02
2017-12-23T04:43:56.917Z,5.99
2017-12-23T04:44:37.506Z,6.09
2017-12-23T04:45:18.080Z,6.04
2017-12-23T04:45:58.637Z,6.07
2017-12-23T04:46:39.226Z,6.02
2017-12-23T04:47:19.809Z,6.04
2017-12-23T04:48:00.391Z,5.93
2017-12-23T04:48:40.976Z,6.12
2017-12-23T04:49:21.617Z,6.12
2017-12-23T04:50:02.179Z,6.09
2017-12-23T04:50:42.775Z,5.9
2017-12-23T04:51:23.373Z,5.97
2017-12-23T04:52:03.945Z,6.05
2017-12-23T04:52:44.508Z,6.02
2017-12-23T04:53:25.086Z,6.07
2017-12-23T04:54:05.659Z,5.98
2017-12-23T04:54:46.250Z,6.07
2017-12-23T04:55:26.844Z,6.04
2017-12-23T04:56:07.417Z,6.01
2017-12-23T04:56:48.001Z,6.04
2017-12-23T04:57:28.570Z,6.04
2017-12-23T04:58:09.165Z,6.01
2017-12-23T04:58:49.735Z,6.04
2017-12-23T04:59:30.310Z,5.99
2017-12-23T05:00:10.898Z,6.02
2017-12-23T05:00:51.458Z,6.05
2017-12-23T05:01:32.035Z,6.04
2017-12-23T05:02:12.619Z,6.01
2017-12-23T05:02:53.242Z,6.01
2017-12-23T05:03:33.828Z,5.94
2017-12-23T05:04:14.461Z,5.97
2017-12-23T05:04:55.004Z,5.98
2017-12-23T05:05:35.586Z,5.93
2017-12-23T05:06:16.202Z,5.98
2017-12-23T05:06:56.770Z,5.99
2017-12-23T05:07:37.326Z,6.07
2017-12-23T05:08:17.969Z,6.02
2017-12-23T05:08:58.531Z,5.97
2017-12-23T05:09:39.088Z,5.99
2017-12-23T05:10:19.685Z,5.99
2017-12-23T05:11:00.277Z,5.9
2017-12-23T05:11:40.847Z,5.97
2017-12-23T05:12:21.436Z,5.87
2017-12-23T05:13:02.010Z,5.91
2017-12-23T05:13:42.597Z,5.94
2017-12-23T05:14:23.216Z,5.93
2017-12-23T05:15:03.804Z,5.94
2017-12-23T05:15:44.391Z,5.99
2017-12-23T05:16:24.972Z,5.94
2017-12-23T05:17:05.548Z,6.01
2017-12-23T05:17:46.208Z,5.99
2017-12-23T05:18:26.817Z,5.98
2017-12-23T05:19:07.387Z,5.93
2017-12-23T05:19:47.954Z,6.05
2017-12-23T05:20:28.516Z,6.02
2017-12-23T05:21:09.138Z,5.98
2017-12-23T05:21:49.724Z,5.97
2017-12-23T05:22:30.342Z,6.07
2017-12-23T05:23:10.934Z,6.01
2017-12-23T05:23:51.507Z,5.9
2017-12-23T05:24:32.080Z,5.94
2017-12-23T05:25:12.645Z,5.97
2017-12-23T05:25:53.218Z,5.99
2017-12-23T05:26:33.784Z,5.91
2017-12-23T05:27:14.390Z,5.91
2017-12-23T05:27:54.957Z,5.97
2017-12-23T05:28:35.539Z,6.02
2017-12-23T05:29:16.160Z,6.02
2017-12-23T05:29:56.727Z,5.98
2017-12-23T05:30:37.313Z,5.99
2017-12-23T05:31:17.917Z,6.02
2017-12-23T05:31:58.513Z,5.98
2017-12-23T05:32:39.097Z,6.09
2017-12-23T05:33:19.674Z,6.04
2017-12-23T05:34:00.262Z,6.04
2017-12-23T05:34:40.828Z,6.07
2017-12-23T05:35:21.401Z,6.05
2017-12-23T05:36:01.980Z,6.01
2017-12-23T05:36:42.552Z,5.93
2017-12-23T05:37:23.115Z,5.91
2017-12-23T05:38:03.689Z,5.89
2017-12-23T05:38:44.289Z,5.91
2017-12-23T05:39:24.857Z,5.94
2017-12-23T05:40:05.428Z,5.93
2017-12-23T05:40:46.014Z,5.9
2017-12-23T05:41:26.592Z,5.93
2017-12-23T05:42:07.162Z,5.89
2017-12-23T05:42:47.730Z,5.9
2017-12-23T05:43:28.324Z,5.93
2017-12-23T05:44:08.928Z,5.91
2017-12-23T05:44:49.484Z,5.99
2017-12-23T05:45:30.035Z,6.01
2017-12-23T05:46:10.613Z,5.94
2017-12-23T05:46:51.187Z,5.98
2017-12-23T05:47:31.769Z,5.97
2017-12-23T05:48:12.382Z,5.93
2017-12-23T05:48:52.958Z,5.9
2017-12-23T05:49:33.545Z,5.98
2017-12-23T05:50:14.123Z,5.98
2017-12-23T05:50:54.707Z,6.05
2017-12-23T05:51:35.271Z,6.01
2017-12-23T05:52:15.848Z,5.97
2017-12-23T05:52:56.431Z,6.04
2017-12-23T05:53:36.984Z,6.05
2017-12-23T05:54:17.561Z,5.99
2017-12-23T05:54:58.136Z,6.02
2017-12-23T05:55:38.704Z,5.9
2017-12-23T05:56:19.289Z,5.9
2017-12-23T05:56:59.852Z,5.91
2017-12-23T05:57:40.438Z,5.9
2017-12-23T05:58:21.012Z,5.97
2017-12-23T05:59:01.597Z,5.91
2017-12-23T05:59:42.162Z,5.91
2017-12-23T06:00:22.754Z,5.84
2017-12-23T06:01:03.327Z,5.82
2017-12-23T06:01:43.875Z,5.94
2017-12-23T06:02:24.460Z,5.97
2017-12-23T06:03:05.042Z,5.9
2017-12-23T06:03:45.631Z,5.9
2017-12-23T06:04:26.213Z,5.91
2017-12-23T06:05:06.797Z,5.91
2017-12-23T06:05:47.370Z,5.98
2017-12-23T06:06:27.942Z,5.97
2017-12-23T06:07:08.557Z,5.98
2017-12-23T06:07:49.138Z,5.93
2017-12-23T06:08:29.704Z,5.9
2017-12-23T06:09:10.281Z,5.9
2017-12-23T06:09:50.899Z,5.94
2017-12-23T06:10:31.452Z,5.93
2017-12-23T06:11:12.042Z,5.94
2017-12-23T06:11:52.679Z,5.91
2017-12-23T06:12:33.192Z,5.93
2017-12-23T06:13:13.812Z,5.93
2017-12-23T06:13:54.370Z,5.93
2017-12-23T06:14:34.956Z,5.93
2017-12-23T06:15:15.505Z,5.94
2017-12-23T06:15:56.079Z,5.98
2017-12-23T06:16:36.645Z,5.99
2017-12-23T06:17:17.260Z,5.98
2017-12-23T06:17:57.839Z,5.89
2017-12-23T06:18:38.405Z,5.94
2017-12-23T06:19:19.019Z,5.9
2017-12-23T06:19:59.583Z,5.9
2017-12-23T06:20:40.157Z,5.97
2017-12-23T06:21:20.743Z,5.93
2017-12-23T06:22:01.323Z,5.87
2017-12-23T06:22:41.888Z,5.97
2017-12-23T06:23:22.496Z,5.94
2017-12-23T06:24:03.074Z,5.93
2017-12-23T06:24:43.637Z,5.91
2017-12-23T06:25:24.206Z,5.87
2017-12-23T06:26:04.827Z,5.84
2017-12-23T06:26:45.398Z,5.93
2017-12-23T06:27:25.966Z,5.94
2017-12-23T06:28:06.538Z,5.9
2017-12-23T06:28:47.088Z,5.9
2017-12-23T06:29:27.682Z,5.87
2017-12-23T06:30:08.282Z,5.98
2017-12-23T06:30:48.834Z,5.94
2017-12-23T06:31:29.414Z,5.97
2017-12-23T06:32:09.989Z,5.99
2017-12-23T06:32:50.558Z,5.93
2017-12-23T06:33:31.127Z,5.93
2017-12-23T06:34:11.718Z,5.93
2017-12-23T06:34:52.300Z,5.98
2017-12-23T06:35:32.880Z,5.93
2017-12-23T06:36:13.458Z,5.91
2017-12-23T06:36:54.016Z,5.9
2017-12-23T06:37:34.607Z,5.94
2017-12-23T06:38:15.184Z,5.94
2017-12-23T06:38:55.756Z,5.91
2017-12-23T06:39:36.348Z,5.94
2017-12-23T06:40:16.974Z,5.91
2017-12-23T06:40:57.526Z,5.91
2017-12-23T06:41:38.119Z,5.93
2017-12-23T06:42:18.681Z,5.97
2017-12-23T06:42:59.243Z,5.98
2017-12-23T06:43:39.833Z,5.98
2017-12-23T06:44:20.400Z,6.01
2017-12-23T06:45:00.956Z,6.05
2017-12-23T06:45:41.530Z,6.01
2017-12-23T06:46:22.096Z,6.09
2017-12-23T06:47:02.669Z,6.11
2017-12-23T06:47:43.256Z,6.09
2017-12-23T06:48:23.812Z,6.09
2017-12-23T06:49:04.403Z,6.05
2017-12-23T06:49:44.988Z,6.04
2017-12-23T06:50:25.564Z,6.04
2017-12-23T06:51:06.145Z,6.11
2017-12-23T06:51:46.764Z,6.02
2017-12-23T06:52:27.336Z,5.94
2017-12-23T06:53:07.915Z,6.01
2017-12-23T06:53:48.477Z,6.09
2017-12-23T06:54:29.039Z,5.94
2017-12-23T06:55:09.599Z,6.04
2017-12-23T06:55:50.184Z,5.97
2017-12-23T06:56:30.741Z,6.09
2017-12-23T06:57:11.312Z,6.09
2017-12-23T06:57:51.878Z,6.05
2017-12-23T06:58:32.441Z,6.11
2017-12-23T06:59:12.999Z,6.07
2017-12-23T06:59:53.571Z,5.99
2017-12-23T07:00:34.138Z,6.04
2017-12-23T07:01:14.716Z,6.11
2017-12-23T07:01:55.288Z,6.2
2017-12-23T07:02:35.850Z,6.11
2017-12-23T07:03:16.435Z,6.11
2017-12-23T07:03:56.997Z,6.17
2017-12-23T07:04:37.578Z,6.12
2017-12-23T07:05:18.165Z,6.05
2017-12-23T07:05:58.745Z,6.14
2017-12-23T07:06:39.332Z,6.2
2017-12-23T07:07:19.922Z,6.26
2017-12-23T07:08:00.511Z,6.2
2017-12-23T07:08:41.089Z,6.26
2017-12-23T07:09:21.692Z,6.11
2017-12-23T07:10:02.302Z,6.2
2017-12-23T07:10:42.867Z,6.26
2017-12-23T07:11:23.438Z,6.09
2017-12-23T07:12:04.021Z,6.16
2017-12-23T07:12:44.589Z,6.17
2017-12-23T07:13:25.178Z,6.16
2017-12-23T07:14:05.756Z,6.26
2017-12-23T07:14:46.363Z,6.33
2017-12-23T07:15:26.927Z,6.27
2017-12-23T07:16:07.504Z,6.3
2017-12-23T07:16:48.117Z,6.26
2017-12-23T07:17:28.668Z,6.27
2017-12-23T07:18:09.239Z,6.35
2017-12-23T07:18:49.808Z,6.3
2017-12-23T07:19:30.401Z,6.3
2017-12-23T07:20:10.991Z,6.3
2017-12-23T07:20:51.581Z,6.33
2017-12-23T07:21:32.183Z,6.33
2017-12-23T07:22:12.740Z,6.27
2017-12-23T07:22:53.318Z,6.28
2017-12-23T07:23:33.888Z,6.33
2017-12-23T07:24:14.458Z,6.3
2017-12-23T07:24:55.029Z,6.33
2017-12-23T07:25:35.591Z,6.39
2017-12-23T07:26:16.169Z,6.44
2017-12-23T07:26:56.746Z,6.36
2017-12-23T07:27:37.316Z,6.39
2017-12-23T07:28:17.895Z,6.39
2017-12-23T07:28:58.472Z,6.44
2017-12-23T07:29:39.038Z,6.44
2017-12-23T07:30:19.606Z,6.41
2017-12-23T07:31:00.209Z,6.39
2017-12-23T07:31:40.776Z,6.36
2017-12-23T07:32:21.373Z,6.46
2017-12-23T07:33:01.971Z,6.48
2017-12-23T07:33:42.529Z,6.33
2017-12-23T07:34:23.088Z,6.35
2017-12-23T07:35:03.671Z,6.41
2017-12-23T07:35:44.242Z,6.39
2017-12-23T07:36:24.850Z,6.38
2017-12-23T07:37:05.406Z,6.35
2017-12-23T07:37:45.980Z,6.36
2017-12-23T07:38:26.548Z,6.49
2017-12-23T07:39:07.120Z,6.36
2017-12-23T07:39:47.684Z,6.41
2017-12-23T07:40:28.264Z,6.39
2017-12-23T07:41:08.837Z,6.39
2017-12-23T07:41:49.449Z,6.46
2017-12-23T07:42:30.007Z,6.45
2017-12-23T07:43:10.586Z,6.42
2017-12-23T07:43:51.183Z,6.38
2017-12-23T07:44:31.755Z,6.42
2017-12-23T07:45:12.322Z,6.36
2017-12-23T07:45:52.905Z,6.33
2017-12-23T07:46:33.514Z,6.38
2017-12-23T07:47:14.081Z,6.45
2017-12-23T07:47:54.674Z,6.39
2017-12-23T07:48:35.234Z,6.42
2017-12-23T07:49:15.819Z,6.44
2017-12-23T07:49:56.412Z,6.45
2017-12-23T07:50:37.017Z,6.46
2017-12-23T07:51:17.606Z,6.39
2017-12-23T07:51:58.206Z,6.49
2017-12-23T07:52:38.770Z,6.45
2017-12-23T07:53:19.339Z,6.49
2017-12-23T07:53:59.907Z,6.44
2017-12-23T07:54:40.536Z,6.48
2017-12-23T07:55:21.116Z,6.48
2017-12-23T07:56:01.697Z,6.49
2017-12-23T07:56:42.273Z,6.48
2017-12-23T07:57:22.894Z,6.52
2017-12-23T07:58:03.428Z,6.45
2017-12-23T07:58:43.993Z,6.48
2017-12-23T07:59:24.554Z,6.54
2017-12-23T08:00:05.115Z,6.59
2017-12-23T08:00:45.678Z,6.49
2017-12-23T08:01:26.246Z,6.48
2017-12-23T08:02:06.821Z,6.51
2017-12-23T08:02:47.421Z,6.45
2017-12-23T08:03:28.001Z,6.45
2017-12-23T08:04:08.577Z,6.57
2017-12-23T08:04:49.163Z,6.56
2017-12-23T08:05:29.735Z,6.6
2017-12-23T08:06:10.316Z,6.63
2017-12-23T08:06:50.878Z,6.63
2017-12-23T08:07:31.496Z,6.64
2017-12-23T08:08:12.084Z,6.64
2017-12-23T08:08:52.694Z,6.66
2017-12-23T08:09:33.269Z,6.64
2017-12-23T08:10:13.851Z,6.6
2017-12-23T08:10:54.400Z,6.6
2017-12-23T08:11:34.981Z,6.7
2017-12-23T08:12:15.556Z,6.7
2017-12-23T08:12:56.146Z,6.78
2017-12-23T08:13:36.743Z,6.7
2017-12-23T08:14:17.335Z,6.72
2017-12-23T08:14:57.949Z,6.81
2017-12-23T08:15:38.553Z,6.77
2017-12-23T08:16:19.140Z,6.7
2017-12-23T08:16:59.725Z,6.77
2017-12-23T08:17:40.296Z,6.75
2017-12-23T08:18:20.890Z,6.74
2017-12-23T08:19:01.464Z,6.77
2017-12-23T08:19:42.042Z,6.82
2017-12-23T08:20:22.625Z,6.78
2017-12-23T08:21:03.214Z,6.93
2017-12-23T08:21:43.775Z,6.85
2017-12-23T08:22:24.357Z,6.89
2017-12-23T08:23:04.967Z,6.89
2017-12-23T08:23:45.523Z,6.93
2017-12-23T08:24:26.118Z,6.84
2017-12-23T08:25:06.694Z,6.85
2017-12-23T08:25:47.260Z,6.93
2017-12-23T08:26:27.832Z,6.92
2017-12-23T08:27:08.397Z,6.95
2017-12-23T08:27:49.015Z,6.85
2017-12-23T08:28:29.605Z,6.96
2017-12-23T08:29:10.170Z,6.99
2017-12-23T08:29:50.738Z,6.96
2017-12-23T08:30:31.332Z,6.96
2017-12-23T08:31:11.918Z,7.02
2017-12-23T08:31:52.490Z,6.95
2017-12-23T08:32:33.060Z,7
2017-12-23T08:33:13.629Z,7
2017-12-23T08:33:54.196Z,6.99
2017-12-23T08:34:34.773Z,7.07
2017-12-23T08:35:15.351Z,6.97
2017-12-23T08:35:55.915Z,7.07
2017-12-23T08:36:36.500Z,7.11
2017-12-23T08:37:17.064Z,7
2017-12-23T08:37:57.629Z,7.1
2017-12-23T08:38:38.210Z,7.14
2017-12-23T08:39:18.776Z,7.13
2017-12-23T08:39:59.354Z,7.15
2017-12-23T08:40:39.940Z,7.17
2017-12-23T08:41:20.523Z,7.14
2017-12-23T08:42:01.108Z,7.14
2017-12-23T08:42:41.695Z,7.15
2017-12-23T08:43:22.282Z,7.13
2017-12-23T08:44:02.896Z,7.2
2017-12-23T08:44:43.490Z,7.06
2017-12-23T08:45:24.068Z,7.02
2017-12-23T08:46:04.682Z,7.13
2017-12-23T08:46:45.262Z,7.1
2017-12-23T08:47:25.835Z,7.15
2017-12-23T08:48:06.408Z,7.15
2017-12-23T08:48:46.976Z,7.18
2017-12-23T08:49:27.546Z,7.11
2017-12-23T08:50:08.118Z,7.2
2017-12-23T08:50:48.687Z,7.17
2017-12-23T08:51:29.309Z,7.21
2017-12-23T08:52:09.894Z,7.25
2017-12-23T08:52:50.479Z,7.21
2017-12-23T08:53:31.043Z,7.23
2017-12-23T08:54:11.597Z,7.24
2017-12-23T08:54:52.175Z,7.2
2017-12-23T08:55:32.767Z,7.15
2017-12-23T08:56:13.343Z,7.24
2017-12-23T08:56:53.911Z,7.15
2017-12-23T08:57:34.489Z,7.2
2017-12-23T08:58:15.058Z,7.2
2017-12-23T08:58:55.641Z,7.2
2017-12-23T08:59:36.228Z,7.17
2017-12-23T09:00:16.797Z,7.24
2017-12-23T09:00:57.367Z,7.36
2017-12-23T09:01:38.004Z,7.21
2017-12-23T09:02:18.576Z,7.31
2017-12-23T09:02:59.193Z,7.29